createdAt,value
2022-09-26T00:01:31.514Z,4.25
2022-09-26T00:03:59.837Z,3.97
2022-09-26T00:06:26.597Z,3.92
2022-09-26T00:08:53.513Z,4.45
2022-09-26T00:11:23.681Z,4.18
2022-09-26T00:13:53.021Z,3.90
2022-09-26T00:16:19.898Z,4.22
2022-09-26T00:18:50.381Z,3.85
2022-09-26T00:21:17.341Z,4.60
2022-09-26T00:23:44.088Z,4.68
2022-09-26T00:26:11.111Z,5.47
2022-09-26T00:28:37.906Z,4.38
2022-09-26T00:31:07.484Z,4.93
2022-09-26T00:33:34.259Z,4.47
2022-09-26T00:36:01.127Z,4.38
2022-09-26T00:38:27.712Z,4.35
2022-09-26T00:40:54.384Z,4.35
2022-09-26T00:43:49.058Z,4.43
2022-09-26T00:46:34.914Z,4.95
2022-09-26T00:49:36.889Z,4.85
2022-09-26T00:52:09.775Z,4.60
2022-09-26T00:54:36.756Z,4.57
2022-09-26T00:57:06.752Z,5.18
2022-09-26T00:59:35.510Z,4.35
2022-09-26T01:02:02.331Z,4.55
2022-09-26T01:04:29.653Z,4.40
2022-09-26T01:06:57.098Z,5.05
2022-09-26T01:09:24.553Z,4.18
2022-09-26T01:11:51.183Z,3.88
2022-09-26T01:14:17.793Z,5.10
2022-09-26T01:16:46.103Z,4.70
2022-09-26T01:19:21.232Z,5.30
2022-09-26T01:22:27.966Z,5.35
2022-09-26T01:25:34.919Z,4.43
2022-09-26T01:28:42.298Z,4.78
2022-09-26T01:31:18.264Z,4.68
2022-09-26T01:34:17.878Z,4.55
2022-09-26T01:39:37.130Z,4.65
2022-09-26T01:42:25.993Z,5.55
2022-09-26T01:45:13.521Z,5.57
2022-09-26T01:47:42.708Z,4.32
2022-09-26T01:50:36.673Z,4.38
2022-09-26T01:53:08.126Z,4.18
2022-09-26T01:55:41.028Z,4.95
2022-09-26T01:58:12.326Z,4.57
2022-09-26T02:00:39.834Z,4.07
2022-09-26T02:03:08.886Z,5.00
2022-09-26T02:05:43.280Z,5.47
2022-09-26T02:08:15.746Z,5.13
2022-09-26T02:10:46.819Z,5.43
2022-09-26T02:13:16.642Z,5.97
2022-09-26T02:15:44.057Z,6.55
2022-09-26T02:18:15.603Z,6.20
2022-09-26T02:20:45.625Z,6.00
2022-09-26T02:23:12.226Z,6.88
2022-09-26T02:25:39.412Z,7.65
2022-09-26T02:28:06.637Z,7.47
2022-09-26T02:30:33.334Z,7.30
2022-09-26T02:32:59.961Z,6.78
2022-09-26T02:35:46.628Z,7.53
2022-09-26T02:38:13.265Z,7.03
2022-09-26T02:40:47.999Z,6.32
2022-09-26T02:43:51.722Z,6.50
2022-09-26T02:46:58.182Z,6.38
2022-09-26T02:52:28.652Z,7.78
2022-09-26T02:55:06.071Z,7.00
2022-09-26T02:58:03.823Z,6.55
2022-09-26T03:00:53.269Z,8.25
2022-09-26T03:03:26.155Z,7.25
2022-09-26T03:05:54.985Z,7.78
2022-09-26T03:08:23.342Z,7.60
2022-09-26T03:10:50.071Z,9.02
2022-09-26T03:13:17.176Z,8.10
2022-09-26T03:15:45.497Z,10.48
2022-09-26T03:18:16.674Z,9.55
2022-09-26T03:20:44.542Z,8.18
2022-09-26T03:23:11.259Z,8.68
2022-09-26T03:25:38.126Z,8.98
2022-09-26T03:28:05.681Z,9.05
2022-09-26T03:30:32.264Z,8.32
2022-09-26T03:32:58.841Z,8.30
2022-09-26T03:35:25.490Z,8.40
2022-09-26T03:37:52.180Z,8.93
2022-09-26T03:40:18.779Z,8.80
2022-09-26T03:42:46.687Z,9.43
2022-09-26T03:45:13.247Z,10.20
2022-09-26T03:47:40.727Z,9.93
2022-09-26T03:50:07.841Z,11.75
2022-09-26T03:52:35.470Z,8.95
2022-09-26T03:55:02.138Z,9.88
2022-09-26T03:57:28.735Z,10.57
2022-09-26T03:59:55.366Z,9.25
2022-09-26T04:02:22.631Z,10.38
2022-09-26T04:04:49.437Z,9.70
2022-09-26T04:07:16.032Z,9.32
2022-09-26T04:09:42.635Z,9.40
2022-09-26T04:12:09.261Z,10.88
2022-09-26T04:14:36.038Z,9.32
2022-09-26T04:17:02.665Z,9.70
2022-09-26T04:19:29.306Z,9.00
2022-09-26T04:21:55.876Z,9.45
2022-09-26T04:24:22.466Z,9.30
2022-09-26T04:26:49.101Z,8.27
2022-09-26T04:29:16.006Z,9.55
2022-09-26T04:31:42.949Z,7.25
2022-09-26T04:34:11.116Z,8.30
2022-09-26T04:36:37.725Z,6.72
2022-09-26T04:39:04.989Z,7.53
2022-09-26T04:41:31.678Z,8.25
2022-09-26T04:43:58.758Z,7.00
2022-09-26T04:46:30.823Z,6.38
2022-09-26T04:48:58.571Z,6.78
2022-09-26T04:51:25.490Z,6.53
2022-09-26T04:53:52.282Z,6.43
2022-09-26T04:56:19.893Z,6.35
2022-09-26T04:58:46.792Z,8.82
2022-09-26T05:01:15.020Z,7.20
2022-09-26T05:03:41.919Z,7.72
2022-09-26T05:06:09.379Z,7.15
2022-09-26T05:08:36.641Z,8.13
2022-09-26T05:11:03.318Z,7.82
2022-09-26T05:13:29.994Z,8.00
2022-09-26T05:15:59.157Z,7.82
2022-09-26T05:18:27.993Z,6.65
2022-09-26T05:20:55.118Z,6.28
2022-09-26T05:23:45.007Z,6.63
2022-09-26T05:26:40.781Z,7.68
2022-09-26T05:29:09.077Z,8.52
2022-09-26T05:31:37.767Z,7.65
2022-09-26T05:34:05.533Z,7.25
2022-09-26T05:36:32.126Z,7.78
2022-09-26T05:38:58.759Z,7.55
2022-09-26T05:41:28.400Z,8.32
2022-09-26T05:43:55.917Z,9.13
2022-09-26T05:46:22.851Z,7.93
2022-09-26T05:48:49.470Z,8.40
2022-09-26T05:51:17.370Z,7.93
2022-09-26T05:53:45.473Z,8.60
2022-09-26T05:56:17.633Z,9.15
2022-09-26T05:58:45.293Z,9.05
2022-09-26T06:01:14.390Z,10.20
2022-09-26T06:03:43.623Z,8.98
2022-09-26T06:06:13.944Z,10.52
2022-09-26T06:08:40.826Z,12.00
2022-09-26T06:11:09.209Z,9.88
2022-09-26T06:13:35.965Z,11.38
2022-09-26T06:16:06.002Z,9.90
2022-09-26T06:18:34.635Z,9.40
2022-09-26T06:21:03.636Z,10.82
2022-09-26T06:23:31.692Z,10.80
2022-09-26T06:25:59.105Z,12.23
2022-09-26T06:28:26.733Z,12.23
2022-09-26T06:30:54.104Z,11.50
2022-09-26T06:33:21.149Z,11.48
2022-09-26T06:35:48.262Z,12.98
2022-09-26T06:38:14.850Z,12.27
2022-09-26T06:40:41.567Z,12.13
2022-09-26T06:43:08.234Z,14.45
2022-09-26T06:45:36.112Z,12.52
2022-09-26T06:48:03.057Z,11.60
2022-09-26T06:50:29.751Z,12.48
2022-09-26T06:52:56.912Z,11.85
2022-09-26T06:55:23.777Z,12.88
2022-09-26T06:57:50.496Z,12.35
2022-09-26T07:00:17.190Z,13.93
2022-09-26T07:02:54.430Z,15.05
2022-09-26T07:05:21.837Z,13.15
2022-09-26T07:07:49.055Z,15.15
2022-09-26T07:10:18.643Z,14.93
2022-09-26T07:12:47.156Z,14.60
2022-09-26T07:15:18.591Z,13.60
2022-09-26T07:17:46.479Z,17.40
2022-09-26T07:20:14.847Z,12.07
2022-09-26T07:22:43.203Z,12.93
2022-09-26T07:25:11.043Z,15.07
2022-09-26T07:27:38.517Z,12.68
2022-09-26T07:30:06.662Z,13.10
2022-09-26T07:32:33.306Z,14.15
2022-09-26T07:35:03.196Z,12.13
2022-09-26T07:37:30.570Z,13.15
2022-09-26T07:40:01.239Z,12.68
2022-09-26T07:42:28.368Z,11.77
2022-09-26T07:45:24.764Z,11.25
2022-09-26T07:48:01.499Z,9.60
2022-09-26T07:50:28.086Z,11.82
2022-09-26T07:52:55.863Z,12.50
2022-09-26T07:55:25.929Z,10.35
2022-09-26T07:57:52.730Z,10.85
2022-09-26T08:00:19.673Z,11.82
2022-09-26T08:02:47.489Z,10.27
2022-09-26T08:05:17.593Z,11.20
2022-09-26T08:07:44.234Z,10.45
2022-09-26T08:10:15.687Z,11.60
2022-09-26T08:12:43.398Z,10.63
2022-09-26T08:15:10.595Z,9.20
2022-09-26T08:17:38.081Z,8.63
2022-09-26T08:20:05.449Z,9.40
2022-09-26T08:22:32.352Z,7.82
2022-09-26T08:25:00.211Z,7.85
2022-09-26T08:27:26.956Z,7.43
2022-09-26T08:29:53.619Z,9.02
2022-09-26T08:32:20.328Z,8.93
2022-09-26T08:34:47.569Z,7.40
2022-09-26T08:37:14.653Z,11.32
2022-09-26T08:39:41.495Z,8.40
2022-09-26T08:42:47.952Z,7.75
2022-09-26T08:45:47.456Z,7.68
2022-09-26T08:48:38.900Z,6.47
2022-09-26T08:51:13.116Z,6.30
2022-09-26T08:53:43.929Z,5.88
2022-09-26T08:56:20.323Z,3.95
2022-09-26T08:58:51.931Z,4.13
2022-09-26T09:01:29.158Z,4.80
2022-09-26T09:04:19.443Z,5.20
2022-09-26T09:06:46.132Z,3.97
2022-09-26T09:09:16.080Z,4.40
2022-09-26T09:11:58.500Z,6.18
2022-09-26T09:17:33.545Z,4.75
2022-09-26T09:20:12.119Z,5.40
2022-09-26T09:22:53.239Z,4.65
2022-09-26T09:25:24.247Z,6.32
2022-09-26T09:28:31.010Z,5.80
2022-09-26T09:31:00.391Z,6.22
2022-09-26T09:33:34.887Z,6.50
2022-09-26T09:36:13.884Z,5.97
2022-09-26T09:38:42.610Z,5.95
2022-09-26T09:41:11.833Z,7.47
2022-09-26T09:43:47.469Z,6.60
2022-09-26T09:46:23.339Z,4.18
2022-09-26T09:48:51.620Z,6.55
2022-09-26T09:51:36.861Z,4.07
2022-09-26T09:54:43.853Z,4.60
2022-09-26T09:57:40.678Z,4.75
2022-09-26T10:00:16.336Z,3.83
2022-09-26T10:03:14.947Z,3.35
2022-09-26T10:05:45.257Z,2.80
2022-09-26T10:08:15.030Z,3.03
2022-09-26T10:10:49.668Z,3.88
2022-09-26T10:13:19.095Z,3.90
2022-09-26T10:15:54.428Z,3.22
2022-09-26T10:18:26.168Z,3.65
2022-09-26T10:21:17.855Z,4.00
2022-09-26T10:23:47.005Z,3.90
2022-09-26T10:26:14.707Z,4.47
2022-09-26T10:28:48.611Z,5.70
2022-09-26T10:31:23.274Z,5.70
2022-09-26T10:33:59.414Z,4.97
2022-09-26T10:36:41.132Z,3.45
2022-09-26T10:39:45.455Z,5.30
2022-09-26T10:42:19.946Z,5.72
2022-09-26T10:44:48.052Z,4.25
2022-09-26T10:47:16.729Z,3.92
2022-09-26T10:49:50.865Z,2.80
2022-09-26T10:52:24.290Z,2.40
2022-09-26T10:55:15.393Z,3.35
2022-09-26T10:57:45.785Z,2.88
2022-09-26T11:00:23.493Z,2.78
2022-09-26T11:02:52.248Z,3.55
2022-09-26T11:05:39.440Z,3.70
2022-09-26T11:08:06.422Z,3.95
2022-09-26T11:10:33.442Z,2.58
2022-09-26T11:13:19.764Z,3.60
2022-09-26T11:16:10.152Z,2.60
2022-09-26T11:19:01.002Z,2.78
2022-09-26T11:21:53.128Z,3.35
2022-09-26T11:24:37.116Z,3.00
2022-09-26T11:27:19.266Z,3.55
2022-09-26T11:30:09.265Z,3.40
2022-09-26T11:32:41.078Z,2.80
2022-09-26T11:35:14.510Z,3.63
2022-09-26T11:38:05.706Z,2.97
2022-09-26T11:40:41.972Z,2.42
2022-09-26T11:46:31.294Z,2.40
2022-09-26T11:49:38.268Z,2.15
2022-09-26T11:52:36.932Z,2.10
2022-09-26T11:55:32.161Z,1.55
2022-09-26T11:58:14.857Z,1.52
2022-09-26T12:03:59.293Z,3.28
2022-09-26T12:06:38.572Z,3.67
2022-09-26T12:09:29.511Z,2.42
2022-09-26T12:12:20.489Z,2.15
2022-09-26T12:15:11.335Z,3.63
2022-09-26T12:18:06.499Z,2.92
2022-09-26T12:20:55.513Z,3.42
2022-09-26T12:23:29.286Z,3.35
2022-09-26T12:26:09.030Z,1.88
2022-09-26T12:28:51.266Z,2.83
2022-09-26T12:31:50.362Z,2.25
2022-09-26T12:37:32.052Z,2.35
2022-09-26T12:40:24.158Z,2.53
2022-09-26T12:43:06.548Z,3.03
2022-09-26T12:45:59.594Z,2.35
2022-09-26T12:51:48.958Z,3.35
2022-09-26T12:54:43.689Z,2.50
2022-09-26T12:57:49.285Z,2.92
2022-09-26T13:00:20.727Z,2.67
2022-09-26T13:03:21.689Z,3.58
2022-09-26T13:06:13.231Z,3.03
2022-09-26T13:08:57.264Z,2.92
2022-09-26T13:14:42.135Z,2.60
2022-09-26T13:17:19.603Z,2.78
2022-09-26T13:19:55.043Z,2.88
2022-09-26T13:22:43.663Z,3.03
2022-09-26T13:30:33.274Z,3.33
2022-09-26T13:33:26.038Z,2.55
2022-09-26T13:35:53.941Z,2.25
2022-09-26T13:38:45.045Z,2.33
2022-09-26T13:41:34.094Z,2.42
2022-09-26T13:44:15.494Z,2.88
2022-09-26T13:46:53.608Z,4.10
2022-09-26T13:49:36.594Z,2.42
2022-09-26T13:57:39.051Z,3.78
2022-09-26T14:03:15.519Z,2.38
2022-09-26T14:08:49.747Z,3.05
2022-09-26T14:16:56.581Z,2.10
2022-09-26T14:19:37.004Z,2.03
2022-09-26T14:22:19.021Z,2.20
2022-09-26T14:24:49.281Z,2.90
2022-09-26T14:27:21.072Z,2.20
2022-09-26T14:30:07.971Z,2.30
2022-09-26T14:32:37.191Z,1.90
2022-09-26T14:35:17.885Z,1.70
2022-09-26T14:37:49.033Z,2.25
2022-09-26T14:40:24.598Z,3.47
2022-09-26T14:43:12.887Z,2.90
2022-09-26T14:45:44.422Z,2.33
2022-09-26T14:48:19.518Z,2.20
2022-09-26T14:50:59.242Z,1.60
2022-09-26T14:53:51.720Z,2.60
2022-09-26T14:59:39.390Z,2.30
2022-09-26T15:02:28.659Z,2.58
2022-09-26T15:05:05.902Z,4.63
2022-09-26T15:07:35.428Z,1.73
2022-09-26T15:10:08.897Z,1.90
2022-09-26T15:13:01.994Z,3.38
2022-09-26T15:18:32.153Z,2.15
2022-09-26T15:21:05.882Z,1.90
2022-09-26T15:23:34.103Z,2.33
2022-09-26T15:26:02.681Z,2.58
2022-09-26T15:28:34.417Z,3.20
2022-09-26T15:34:01.913Z,3.30
2022-09-26T15:36:30.138Z,2.70
2022-09-26T15:38:57.862Z,2.70
2022-09-26T15:41:44.437Z,3.28
2022-09-26T15:44:20.384Z,2.50
2022-09-26T15:46:49.378Z,2.13
2022-09-26T15:49:24.463Z,2.78
2022-09-26T15:51:53.267Z,2.58
2022-09-26T15:54:26.104Z,3.92
2022-09-26T15:56:52.837Z,3.63
2022-09-26T16:02:01.702Z,2.78
2022-09-26T16:04:29.306Z,4.18
2022-09-26T16:09:37.570Z,2.30
2022-09-26T16:12:12.829Z,2.65
2022-09-26T16:15:03.454Z,2.78
2022-09-26T16:17:49.220Z,3.20
2022-09-26T16:23:00.346Z,4.13
2022-09-26T16:25:32.079Z,5.70
2022-09-26T16:28:20.815Z,5.60
2022-09-26T16:33:49.630Z,4.82
2022-09-26T16:36:19.485Z,4.32
2022-09-26T16:39:03.094Z,5.22
2022-09-26T16:42:03.231Z,4.82
2022-09-26T16:44:36.052Z,4.85
2022-09-26T16:47:05.609Z,6.53
2022-09-26T16:52:26.991Z,5.45
2022-09-26T16:54:55.473Z,6.60
2022-09-26T16:57:25.339Z,6.78
2022-09-26T16:59:52.525Z,5.40
2022-09-26T17:02:20.317Z,6.22
2022-09-26T17:04:48.270Z,5.50
2022-09-26T17:07:15.490Z,5.40
2022-09-26T17:09:42.645Z,6.28
2022-09-26T17:12:24.301Z,4.38
2022-09-26T17:14:52.568Z,5.07
2022-09-26T17:17:21.841Z,6.07
2022-09-26T17:19:49.463Z,5.65
2022-09-26T17:22:17.411Z,5.82
2022-09-26T17:24:44.195Z,4.82
2022-09-26T17:27:14.139Z,5.90
2022-09-26T17:29:43.329Z,4.53
2022-09-26T17:32:13.294Z,5.18
2022-09-26T17:34:39.905Z,5.22
2022-09-26T17:37:06.508Z,4.30
2022-09-26T17:39:33.153Z,4.75
2022-09-26T17:42:01.637Z,4.82
2022-09-26T17:44:28.276Z,5.00
2022-09-26T17:46:56.086Z,5.35
2022-09-26T17:49:28.249Z,5.38
2022-09-26T17:51:57.040Z,3.78
2022-09-26T17:54:29.442Z,4.22
2022-09-26T17:56:56.496Z,4.38
2022-09-26T17:59:24.302Z,4.32
2022-09-26T18:01:52.995Z,3.95
2022-09-26T18:04:20.597Z,4.25
2022-09-26T18:06:47.316Z,4.35
2022-09-26T18:09:16.434Z,4.25
2022-09-26T18:11:45.032Z,4.40
2022-09-26T18:14:15.441Z,5.78
2022-09-26T18:16:42.290Z,4.35
2022-09-26T18:19:09.555Z,6.18
2022-09-26T18:21:36.306Z,4.57
2022-09-26T18:24:06.054Z,4.70
2022-09-26T18:26:34.553Z,4.20
2022-09-26T18:29:06.188Z,5.40
2022-09-26T18:31:36.089Z,6.45
2022-09-26T18:34:03.230Z,6.13
2022-09-26T18:36:33.122Z,6.45
2022-09-26T18:39:00.155Z,5.00
2022-09-26T18:41:27.184Z,4.53
2022-09-26T18:43:54.747Z,4.82
2022-09-26T18:46:23.397Z,4.60
2022-09-26T18:48:50.191Z,4.00
2022-09-26T18:51:17.515Z,4.13
2022-09-26T18:53:44.183Z,4.53
2022-09-26T18:56:30.877Z,4.05
2022-09-26T18:58:57.578Z,5.10
2022-09-26T19:01:34.234Z,4.60
2022-09-26T19:04:02.625Z,4.63
2022-09-26T19:06:32.393Z,4.57
2022-09-26T19:09:02.812Z,5.88
2022-09-26T19:11:31.817Z,9.38
2022-09-26T19:14:00.007Z,6.85
2022-09-26T19:16:26.622Z,6.97
2022-09-26T19:18:53.303Z,4.93
2022-09-26T19:24:40.217Z,6.45
2022-09-26T19:27:13.478Z,5.50
2022-09-26T19:29:46.304Z,5.07
2022-09-26T19:34:44.734Z,4.63
2022-09-26T19:37:13.923Z,5.13
2022-09-26T19:39:40.530Z,4.32
2022-09-26T19:42:07.179Z,5.05
2022-09-26T19:44:34.175Z,4.20
2022-09-26T19:47:02.087Z,4.30
2022-09-26T19:49:28.786Z,3.97
2022-09-26T19:51:55.730Z,4.88
2022-09-26T19:54:22.414Z,3.40
2022-09-26T19:56:49.154Z,3.15
2022-09-26T19:59:17.190Z,3.30
2022-09-26T20:01:46.311Z,2.42
2022-09-26T20:04:15.735Z,3.90
2022-09-26T20:06:42.545Z,3.72
2022-09-26T20:09:18.603Z,2.90
2022-09-26T20:11:45.370Z,2.83
2022-09-26T20:14:27.211Z,3.17
2022-09-26T20:16:57.368Z,2.75
2022-09-26T20:19:28.516Z,3.08
2022-09-26T20:21:59.641Z,2.83
2022-09-26T20:24:26.721Z,2.63
2022-09-26T20:26:53.340Z,2.67
2022-09-26T20:29:20.136Z,2.45
2022-09-26T20:31:47.357Z,3.05
2022-09-26T20:34:17.059Z,2.67
2022-09-26T20:36:46.584Z,2.45
2022-09-26T20:39:20.916Z,2.33
2022-09-26T20:41:47.684Z,3.03
2022-09-26T20:44:19.868Z,2.50
2022-09-26T20:46:50.054Z,2.55
2022-09-26T20:49:20.868Z,2.60
2022-09-26T20:51:47.702Z,3.03
2022-09-26T20:54:27.614Z,2.40
2022-09-26T20:56:54.758Z,2.78
2022-09-26T20:59:22.454Z,2.42
2022-09-26T21:01:49.467Z,3.03
2022-09-26T21:04:16.393Z,3.03
2022-09-26T21:06:43.358Z,2.30
2022-09-26T21:09:15.732Z,2.88
2022-09-26T21:11:42.651Z,2.70
2022-09-26T21:14:09.525Z,2.95
2022-09-26T21:16:38.596Z,2.25
2022-09-26T21:19:05.459Z,2.05
2022-09-26T21:21:32.207Z,2.03
2022-09-26T21:23:58.982Z,2.30
2022-09-26T21:26:27.107Z,2.67
2022-09-26T21:28:54.723Z,2.60
2022-09-26T21:31:25.639Z,2.33
2022-09-26T21:33:53.332Z,2.20
2022-09-26T21:36:21.271Z,1.75
2022-09-26T21:38:49.868Z,1.73
2022-09-26T21:41:16.476Z,2.38
2022-09-26T21:43:44.904Z,2.47
2022-09-26T21:46:11.617Z,2.35
2022-09-26T21:48:38.358Z,2.35
2022-09-26T21:51:05.131Z,2.05
2022-09-26T21:53:37.205Z,2.25
2022-09-26T21:56:07.703Z,2.15
2022-09-26T21:58:35.757Z,2.30
2022-09-26T22:01:02.716Z,2.15
2022-09-26T22:03:29.528Z,2.40
2022-09-26T22:05:56.148Z,1.95
2022-09-26T22:08:23.195Z,2.03
2022-09-26T22:10:53.283Z,2.13
2022-09-26T22:13:20.079Z,2.20
2022-09-26T22:15:47.075Z,1.90
2022-09-26T22:18:13.767Z,2.00
2022-09-26T22:20:40.619Z,2.00
2022-09-26T22:23:07.502Z,2.50
2022-09-26T22:25:34.627Z,1.98
2022-09-26T22:28:01.578Z,2.03
2022-09-26T22:30:28.291Z,2.10
2022-09-26T22:32:54.980Z,2.78
2022-09-26T22:35:21.878Z,1.65
2022-09-26T22:37:48.570Z,1.73
2022-09-26T22:40:15.371Z,2.70
2022-09-26T22:42:42.182Z,1.80
2022-09-26T22:45:09.363Z,1.92
2022-09-26T22:47:36.048Z,1.75
2022-09-26T22:50:02.709Z,1.70
2022-09-26T22:52:29.381Z,2.33
2022-09-26T22:54:56.139Z,1.88
2022-09-26T22:57:23.193Z,2.03
2022-09-26T22:59:49.940Z,1.77
2022-09-26T23:02:16.624Z,1.60
2022-09-26T23:04:50.343Z,1.88
2022-09-26T23:07:18.574Z,1.70
2022-09-26T23:09:45.260Z,1.92
2022-09-26T23:12:12.026Z,1.80
2022-09-26T23:14:38.802Z,1.50
2022-09-26T23:17:05.700Z,1.55
2022-09-26T23:19:32.557Z,1.85
2022-09-26T23:21:59.300Z,1.60
2022-09-26T23:24:25.944Z,1.80
2022-09-26T23:26:52.620Z,1.75
2022-09-26T23:29:19.316Z,1.83
2022-09-26T23:31:45.953Z,1.95
2022-09-26T23:34:12.536Z,1.60
2022-09-26T23:36:39.184Z,1.80
2022-09-26T23:39:05.998Z,1.50
2022-09-26T23:41:32.624Z,1.98
2022-09-26T23:43:59.344Z,2.00
2022-09-26T23:46:26.149Z,1.58
2022-09-26T23:48:52.942Z,1.33
2022-09-26T23:51:19.571Z,1.92
2022-09-26T23:53:47.004Z,1.88
2022-09-26T23:56:14.163Z,1.27
2022-09-26T23:58:41.010Z,2.30
